createdAt,value
2023-03-08T00:02:04.286Z,12.57
2023-03-08T00:05:06.524Z,13.98
2023-03-08T00:08:08.077Z,15.27
2023-03-08T00:11:11.512Z,17.25
2023-03-08T00:14:13.033Z,14.57
2023-03-08T00:17:14.646Z,16.65
2023-03-08T00:20:16.135Z,16.75
2023-03-08T00:23:17.616Z,22.05
2023-03-08T00:26:19.091Z,18.17
2023-03-08T00:29:20.616Z,18.75
2023-03-08T00:32:22.191Z,13.18
2023-03-08T00:35:23.780Z,16.55
2023-03-08T00:38:25.374Z,13.70
2023-03-08T00:41:27.077Z,16.10
2023-03-08T00:44:28.557Z,17.67
2023-03-08T00:47:30.039Z,15.15
2023-03-08T00:50:31.780Z,21.03
2023-03-08T00:53:33.516Z,18.15
2023-03-08T00:56:35.017Z,15.13
2023-03-08T00:59:36.496Z,20.70
2023-03-08T01:02:41.216Z,20.52
2023-03-08T01:05:47.559Z,20.40
2023-03-08T01:08:49.058Z,12.35
2023-03-08T01:11:50.540Z,20.02
2023-03-08T01:14:52.765Z,14.23
2023-03-08T01:17:54.251Z,15.63
2023-03-08T01:20:59.863Z,16.05
2023-03-08T01:24:01.412Z,15.27
2023-03-08T01:27:02.926Z,19.55
2023-03-08T01:30:05.063Z,21.25
2023-03-08T01:33:06.564Z,12.65
2023-03-08T01:36:09.394Z,16.17
2023-03-08T01:39:10.897Z,17.23
2023-03-08T01:42:12.457Z,14.65
2023-03-08T01:45:51.603Z,13.85
2023-03-08T01:48:54.538Z,12.77
2023-03-08T01:52:06.898Z,17.90
2023-03-08T01:55:09.941Z,16.33
2023-03-08T01:58:11.538Z,16.95
2023-03-08T02:01:13.103Z,14.82
2023-03-08T02:04:14.591Z,12.70
2023-03-08T02:07:16.120Z,19.38
2023-03-08T02:10:17.616Z,15.82
2023-03-08T02:13:19.471Z,11.70
2023-03-08T02:16:21.063Z,17.70
2023-03-08T02:19:26.449Z,21.02
2023-03-08T02:22:27.952Z,28.10
2023-03-08T02:25:29.514Z,17.55
2023-03-08T02:28:31.063Z,54.78
2023-03-08T02:31:32.554Z,38.78
2023-03-08T02:34:34.559Z,24.23
2023-03-08T02:37:36.041Z,15.50
2023-03-08T02:40:38.158Z,13.98
2023-03-08T02:43:39.656Z,14.82
2023-03-08T02:46:41.137Z,18.67
2023-03-08T02:49:42.615Z,12.15
2023-03-08T02:52:44.102Z,15.02
2023-03-08T02:55:45.568Z,12.48
2023-03-08T02:58:47.038Z,15.20
2023-03-08T03:01:48.595Z,16.25
2023-03-08T03:04:50.103Z,11.57
2023-03-08T03:07:51.852Z,11.55
2023-03-08T03:10:53.368Z,12.02
2023-03-08T03:13:56.526Z,12.68
2023-03-08T03:16:58.502Z,14.23
2023-03-08T03:20:00.095Z,10.35
2023-03-08T03:23:01.623Z,12.70
2023-03-08T03:26:10.873Z,52.67
2023-03-08T03:29:12.380Z,15.68
2023-03-08T03:32:13.966Z,22.45
2023-03-08T03:35:15.573Z,27.60
2023-03-08T03:38:18.003Z,36.92
2023-03-08T03:41:23.024Z,33.10
2023-03-08T03:44:24.534Z,52.67
2023-03-08T03:47:26.038Z,17.80
2023-03-08T03:50:27.537Z,44.33
2023-03-08T03:53:29.534Z,18.77
2023-03-08T03:56:31.002Z,13.32
2023-03-08T03:59:33.975Z,17.85
2023-03-08T04:02:35.536Z,11.35
2023-03-08T04:05:37.135Z,12.65
2023-03-08T04:08:44.483Z,15.77
2023-03-08T04:11:45.978Z,14.55
2023-03-08T04:14:47.510Z,39.65
2023-03-08T04:17:49.020Z,23.20
2023-03-08T04:20:50.540Z,17.10
2023-03-08T04:23:52.284Z,27.73
2023-03-08T04:26:53.821Z,19.23
2023-03-08T04:29:55.567Z,20.10
2023-03-08T04:32:57.073Z,20.02
2023-03-08T04:35:58.576Z,16.27
2023-03-08T04:39:00.142Z,14.23
2023-03-08T04:42:01.714Z,28.33
2023-03-08T04:45:03.489Z,14.05
2023-03-08T04:48:05.008Z,15.03
2023-03-08T04:51:07.323Z,18.58
2023-03-08T04:54:08.864Z,13.95
2023-03-08T04:57:10.351Z,15.98
2023-03-08T05:00:12.525Z,12.77
2023-03-08T05:03:14.105Z,12.98
2023-03-08T05:06:15.581Z,14.15
2023-03-08T05:09:17.062Z,13.90
2023-03-08T05:12:18.582Z,13.43
2023-03-08T05:15:20.118Z,18.23
2023-03-08T05:18:21.659Z,12.65
2023-03-08T05:21:24.273Z,14.70
2023-03-08T05:27:32.607Z,17.52
2023-03-08T05:30:34.121Z,15.25
2023-03-08T05:33:35.705Z,16.55
2023-03-08T05:36:37.512Z,14.15
2023-03-08T05:39:39.010Z,9.77
2023-03-08T05:42:40.549Z,13.35
2023-03-08T05:45:42.242Z,18.85
2023-03-08T05:48:43.876Z,15.30
2023-03-08T05:51:45.378Z,15.82
2023-03-08T05:54:46.864Z,12.10
2023-03-08T05:57:48.363Z,15.07
2023-03-08T06:00:49.831Z,11.68
2023-03-08T06:03:53.194Z,12.07
2023-03-08T06:06:54.694Z,13.55
2023-03-08T06:09:56.337Z,13.02
2023-03-08T06:12:57.914Z,12.27
2023-03-08T06:16:00.037Z,12.25
2023-03-08T06:19:02.095Z,14.73
2023-03-08T06:22:03.638Z,14.38
2023-03-08T06:25:05.674Z,10.05
2023-03-08T06:28:07.140Z,11.00
2023-03-08T06:31:10.487Z,11.98
2023-03-08T06:34:12.687Z,16.60
2023-03-08T06:37:14.518Z,11.65
2023-03-08T06:40:16.432Z,12.57
2023-03-08T06:43:18.184Z,16.65
2023-03-08T06:46:20.299Z,13.63
2023-03-08T06:49:22.266Z,29.42
2023-03-08T06:52:23.765Z,16.42
2023-03-08T06:55:25.241Z,16.73
2023-03-08T06:58:26.775Z,10.00
2023-03-08T07:01:28.335Z,14.38
2023-03-08T07:04:29.920Z,16.55
2023-03-08T07:07:31.665Z,13.55
2023-03-08T07:10:33.214Z,16.33
2023-03-08T07:13:35.131Z,10.52
2023-03-08T07:16:36.672Z,12.80
2023-03-08T07:19:38.215Z,16.23
2023-03-08T07:22:41.986Z,11.27
2023-03-08T07:25:43.493Z,13.05
2023-03-08T07:28:48.368Z,11.82
2023-03-08T07:31:49.851Z,8.93
2023-03-08T07:34:51.355Z,10.10
2023-03-08T07:37:52.860Z,9.95
2023-03-08T07:40:56.060Z,10.05
2023-03-08T07:43:57.568Z,10.48
2023-03-08T07:46:59.067Z,10.95
2023-03-08T07:50:00.625Z,11.20
2023-03-08T07:53:02.216Z,10.55
2023-03-08T07:56:03.912Z,11.98
2023-03-08T07:59:05.384Z,6.45
2023-03-08T08:02:06.870Z,11.00
2023-03-08T08:05:08.618Z,9.88
2023-03-08T08:08:13.693Z,7.73
2023-03-08T08:11:16.377Z,9.07
2023-03-08T08:17:19.957Z,9.25
2023-03-08T08:20:21.445Z,9.60
2023-03-08T08:23:22.927Z,9.48
2023-03-08T08:26:24.488Z,9.90
2023-03-08T08:29:25.964Z,10.38
2023-03-08T08:32:27.574Z,8.25
2023-03-08T08:35:42.457Z,12.88
2023-03-08T08:38:46.217Z,8.65
2023-03-08T08:41:49.644Z,11.40
2023-03-08T08:44:52.879Z,14.77
2023-03-08T08:47:54.346Z,9.00
2023-03-08T08:50:55.829Z,6.45
2023-03-08T08:53:57.335Z,8.25
2023-03-08T08:56:59.123Z,5.13
2023-03-08T09:00:00.621Z,8.43
2023-03-08T09:03:02.248Z,5.90
2023-03-08T09:06:03.848Z,6.97
2023-03-08T09:09:05.841Z,5.70
2023-03-08T09:12:07.771Z,4.55
2023-03-08T09:15:11.295Z,6.82
2023-03-08T09:18:12.791Z,3.70
2023-03-08T09:21:14.484Z,3.60
2023-03-08T09:24:17.061Z,4.33
2023-03-08T09:30:19.953Z,6.38
2023-03-08T09:33:21.494Z,6.38
2023-03-08T09:36:22.978Z,3.10
2023-03-08T09:39:24.475Z,3.92
2023-03-08T09:42:27.660Z,6.80
2023-03-08T09:45:29.181Z,3.25
2023-03-08T09:48:30.795Z,5.43
2023-03-08T09:51:35.505Z,5.32
2023-03-08T09:54:38.361Z,8.38
2023-03-08T09:57:44.528Z,10.75
2023-03-08T10:00:46.810Z,3.72
2023-03-08T10:04:07.788Z,4.43
2023-03-08T10:07:30.915Z,6.35
2023-03-08T10:10:42.878Z,4.13
2023-03-08T10:13:48.274Z,6.78
2023-03-08T10:16:52.283Z,6.00
2023-03-08T10:20:01.650Z,6.50
2023-03-08T10:23:16.945Z,6.47
2023-03-08T10:26:19.273Z,7.07
2023-03-08T10:29:21.580Z,3.20
2023-03-08T10:32:23.296Z,2.50
2023-03-08T10:35:39.643Z,3.40
2023-03-08T10:38:41.186Z,2.78
2023-03-08T10:41:45.272Z,5.10
2023-03-08T10:45:01.620Z,2.00
2023-03-08T10:48:04.707Z,3.55
2023-03-08T10:51:07.243Z,3.53
2023-03-08T10:54:10.255Z,2.75
2023-03-08T10:57:11.978Z,4.15
2023-03-08T11:00:19.435Z,2.00
2023-03-08T11:03:22.022Z,2.72
2023-03-08T11:06:24.390Z,2.28
2023-03-08T11:12:31.890Z,3.00
2023-03-08T11:15:33.516Z,2.30
2023-03-08T11:18:54.180Z,3.20
2023-03-08T11:22:07.819Z,5.88
2023-03-08T11:25:09.219Z,3.70
2023-03-08T11:28:37.104Z,5.43
2023-03-08T11:31:55.132Z,3.72
2023-03-08T11:35:03.983Z,2.88
2023-03-08T11:38:21.646Z,2.17
2023-03-08T11:41:38.087Z,3.60
2023-03-08T11:44:49.046Z,2.28
2023-03-08T11:47:56.511Z,4.53
2023-03-08T11:51:10.819Z,2.83
2023-03-08T11:54:43.208Z,2.05
2023-03-08T11:57:45.563Z,2.45
2023-03-08T12:03:52.651Z,2.75
2023-03-08T12:06:54.977Z,3.50
2023-03-08T12:13:12.510Z,3.45
2023-03-08T12:16:38.524Z,2.17
2023-03-08T12:19:44.727Z,6.68
2023-03-08T12:22:48.564Z,3.25
2023-03-08T12:25:53.310Z,3.72
2023-03-08T12:28:58.201Z,6.20
2023-03-08T12:31:59.798Z,2.95
2023-03-08T12:35:06.821Z,2.75
2023-03-08T12:38:17.417Z,3.45
2023-03-08T12:41:29.355Z,2.88
2023-03-08T12:44:31.047Z,2.83
2023-03-08T12:47:32.574Z,2.88
2023-03-08T12:50:45.234Z,3.27
2023-03-08T12:53:49.784Z,5.47
2023-03-08T12:56:52.358Z,4.78
2023-03-08T13:00:01.582Z,6.55
2023-03-08T13:03:13.180Z,5.85
2023-03-08T13:06:35.978Z,2.80
2023-03-08T13:09:44.743Z,4.55
2023-03-08T13:12:52.231Z,3.75
2023-03-08T13:16:24.600Z,2.10
2023-03-08T13:19:30.232Z,1.98
2023-03-08T13:22:54.644Z,2.05
2023-03-08T13:26:47.551Z,1.83
2023-03-08T13:29:51.164Z,2.25
2023-03-08T13:32:52.680Z,2.25
2023-03-08T13:36:27.217Z,2.87
2023-03-08T13:39:30.118Z,3.40
2023-03-08T13:42:31.663Z,2.05
2023-03-08T13:45:33.132Z,2.40
2023-03-08T13:48:35.427Z,6.60
2023-03-08T13:54:41.519Z,1.58
2023-03-08T13:57:43.313Z,2.90
2023-03-08T14:00:45.715Z,1.77
2023-03-08T14:06:50.425Z,2.15
2023-03-08T14:09:51.982Z,2.47
2023-03-08T14:12:53.877Z,3.95
2023-03-08T14:15:57.777Z,2.80
2023-03-08T14:19:00.527Z,3.63
2023-03-08T14:22:04.146Z,2.00
2023-03-08T14:25:06.315Z,1.63
2023-03-08T14:28:35.129Z,4.38
2023-03-08T14:31:39.016Z,8.43
2023-03-08T14:34:44.774Z,1.85
2023-03-08T14:37:46.978Z,2.20
2023-03-08T14:43:52.749Z,3.42
2023-03-08T14:47:00.099Z,1.90
2023-03-08T14:50:18.285Z,8.15
2023-03-08T14:53:29.344Z,4.85
2023-03-08T14:56:30.855Z,4.15
2023-03-08T14:59:33.748Z,2.97
2023-03-08T15:02:36.208Z,7.85
2023-03-08T15:05:39.830Z,3.65
2023-03-08T15:08:41.333Z,1.77
2023-03-08T15:11:43.776Z,1.53
2023-03-08T15:14:45.382Z,7.40
2023-03-08T15:17:47.398Z,2.85
2023-03-08T15:20:49.447Z,1.95
2023-03-08T15:23:51.055Z,2.63
2023-03-08T15:26:52.769Z,4.47
2023-03-08T15:29:54.221Z,2.28
2023-03-08T15:32:57.939Z,7.00
2023-03-08T15:36:00.895Z,1.88
2023-03-08T15:39:04.531Z,2.67
2023-03-08T15:42:06.222Z,2.95
2023-03-08T15:45:08.561Z,2.78
2023-03-08T15:51:19.306Z,3.08
2023-03-08T15:54:20.971Z,2.80
2023-03-08T15:57:22.452Z,3.33
2023-03-08T16:00:24.674Z,5.47
2023-03-08T16:03:30.802Z,1.48
2023-03-08T16:06:32.821Z,1.65
2023-03-08T16:09:34.789Z,1.40
2023-03-08T16:12:36.263Z,2.92
2023-03-08T16:15:40.848Z,1.20
2023-03-08T16:18:44.012Z,4.45
2023-03-08T16:21:45.497Z,3.88
2023-03-08T16:24:47.081Z,1.63
2023-03-08T16:27:48.722Z,1.42
2023-03-08T16:30:50.323Z,1.90
2023-03-08T16:33:51.843Z,2.40
2023-03-08T16:36:53.416Z,3.23
2023-03-08T16:39:55.211Z,1.67
2023-03-08T16:42:57.182Z,1.40
2023-03-08T16:45:59.859Z,1.92
2023-03-08T16:49:01.360Z,2.30
2023-03-08T16:52:03.015Z,2.15
2023-03-08T16:55:05.183Z,1.85
2023-03-08T16:58:06.701Z,1.85
2023-03-08T17:01:12.568Z,2.23
2023-03-08T17:04:14.349Z,1.40
2023-03-08T17:07:16.438Z,2.10
2023-03-08T17:10:17.926Z,2.17
2023-03-08T17:13:19.541Z,3.00
2023-03-08T17:16:23.238Z,4.25
2023-03-08T17:19:27.408Z,27.67
2023-03-08T17:22:28.894Z,2.42
2023-03-08T17:25:30.377Z,2.27
2023-03-08T17:28:32.028Z,3.70
2023-03-08T17:31:33.681Z,2.33
2023-03-08T17:34:35.282Z,1.40
2023-03-08T17:37:41.569Z,7.38
2023-03-08T17:40:44.208Z,2.42
2023-03-08T17:43:45.780Z,3.10
2023-03-08T17:46:47.337Z,1.83
2023-03-08T17:49:49.772Z,3.20
2023-03-08T17:52:51.285Z,1.60
2023-03-08T17:55:52.746Z,2.33
2023-03-08T17:58:54.994Z,5.47
2023-03-08T18:04:57.871Z,3.80
2023-03-08T18:07:59.402Z,3.63
2023-03-08T18:11:00.964Z,3.17
2023-03-08T18:14:02.505Z,2.17
2023-03-08T18:17:04.565Z,2.17
2023-03-08T18:20:06.999Z,2.55
2023-03-08T18:23:08.480Z,3.28
2023-03-08T18:26:11.459Z,5.63
2023-03-08T18:29:13.093Z,3.90
2023-03-08T18:32:14.660Z,1.55
2023-03-08T18:35:19.246Z,1.73
2023-03-08T18:38:20.782Z,2.90
2023-03-08T18:41:25.484Z,1.60
2023-03-08T18:44:27.161Z,2.78
2023-03-08T18:47:28.685Z,2.95
2023-03-08T18:50:30.183Z,3.60
2023-03-08T18:53:31.754Z,2.23
2023-03-08T18:56:33.243Z,2.43
2023-03-08T18:59:35.062Z,1.90
2023-03-08T19:02:36.656Z,1.50
2023-03-08T19:05:38.140Z,2.35
2023-03-08T19:08:39.937Z,2.10
2023-03-08T19:11:41.884Z,3.33
2023-03-08T19:14:43.617Z,3.60
2023-03-08T19:17:45.400Z,1.63
2023-03-08T19:20:46.917Z,1.95
2023-03-08T19:23:48.626Z,2.20
2023-03-08T19:26:51.392Z,4.93
2023-03-08T19:29:53.013Z,3.50
2023-03-08T19:32:55.694Z,4.40
2023-03-08T19:35:57.310Z,6.50
2023-03-08T19:38:59.028Z,3.53
2023-03-08T19:42:05.788Z,1.80
2023-03-08T19:45:07.980Z,2.70
2023-03-08T19:48:09.461Z,4.85
2023-03-08T19:51:15.197Z,2.28
2023-03-08T19:54:17.157Z,6.03
2023-03-08T19:57:18.734Z,3.70
2023-03-08T20:00:20.511Z,2.38
2023-03-08T20:03:22.016Z,4.65
2023-03-08T20:06:34.427Z,11.70
2023-03-08T20:12:37.485Z,3.17
2023-03-08T20:15:39.023Z,2.13
2023-03-08T20:18:40.632Z,2.43
2023-03-08T20:21:42.147Z,1.67
2023-03-08T20:24:43.627Z,2.00
2023-03-08T20:27:45.136Z,3.23
2023-03-08T20:30:47.837Z,2.70
2023-03-08T20:33:51.743Z,2.10
2023-03-08T20:36:53.218Z,2.17
2023-03-08T20:39:54.793Z,3.00
2023-03-08T20:42:57.830Z,3.42
2023-03-08T20:46:01.581Z,2.70
2023-03-08T20:49:03.135Z,3.33
2023-03-08T20:52:04.757Z,3.33
2023-03-08T20:55:06.452Z,4.10
2023-03-08T20:58:08.017Z,3.80
2023-03-08T21:01:16.596Z,4.90
2023-03-08T21:04:18.091Z,3.90
2023-03-08T21:07:19.649Z,4.10
2023-03-08T21:10:21.340Z,4.85
2023-03-08T21:13:22.854Z,2.92
2023-03-08T21:16:24.924Z,2.27
2023-03-08T21:19:26.458Z,2.55
2023-03-08T21:22:28.064Z,5.37
2023-03-08T21:25:29.692Z,5.38
2023-03-08T21:28:31.200Z,4.63
2023-03-08T21:31:33.949Z,2.73
2023-03-08T21:34:35.425Z,2.28
2023-03-08T21:37:36.892Z,3.87
2023-03-08T21:40:39.292Z,3.17
2023-03-08T21:43:40.786Z,5.15
2023-03-08T21:46:42.468Z,3.38
2023-03-08T21:49:43.977Z,5.30
2023-03-08T21:52:45.442Z,7.77
2023-03-08T21:55:46.926Z,3.23
2023-03-08T21:58:48.404Z,5.17
2023-03-08T22:01:51.025Z,3.97
2023-03-08T22:04:52.545Z,3.45
2023-03-08T22:07:54.081Z,8.93
2023-03-08T22:10:55.629Z,8.57
2023-03-08T22:13:58.710Z,6.47
2023-03-08T22:17:00.642Z,7.10
2023-03-08T22:20:02.152Z,8.10
2023-03-08T22:23:03.658Z,3.47
2023-03-08T22:26:08.769Z,7.32
2023-03-08T22:29:10.295Z,3.33
2023-03-08T22:32:11.850Z,6.85
2023-03-08T22:35:13.334Z,3.97
2023-03-08T22:38:14.807Z,4.23
2023-03-08T22:41:24.485Z,3.67
2023-03-08T22:44:26.097Z,4.75
2023-03-08T22:47:27.615Z,6.05
2023-03-08T22:50:29.159Z,7.07
2023-03-08T22:53:30.690Z,4.10
2023-03-08T22:56:33.328Z,7.35
2023-03-08T22:59:34.790Z,4.55
2023-03-08T23:02:36.290Z,6.40
2023-03-08T23:05:37.821Z,5.17
2023-03-08T23:08:39.430Z,3.97
2023-03-08T23:11:41.156Z,4.40
2023-03-08T23:14:44.971Z,3.10
2023-03-08T23:17:46.745Z,2.90
2023-03-08T23:20:48.241Z,2.60
2023-03-08T23:23:49.951Z,3.15
2023-03-08T23:26:51.517Z,2.92
2023-03-08T23:29:53.113Z,3.15
2023-03-08T23:32:54.611Z,4.43
2023-03-08T23:35:56.214Z,4.83
2023-03-08T23:38:58.007Z,38.45
2023-03-08T23:41:59.922Z,17.23
2023-03-08T23:45:01.406Z,7.10
2023-03-08T23:48:03.479Z,6.80
2023-03-08T23:54:07.070Z,4.00
2023-03-08T23:57:08.611Z,3.50
